Time;durP1;ratioP1;P1;durP2;ratioP2;P2;SDS_P1;SDS_P2;PMS_P1;PMS_P2;Temp;Humidity;BMP_temperature;BMP_pressure;BME280_temperature;BME280_humidity;BME280_pressure;Samples;Min_cycle;Max_cycle;Signal;HPM_P1;HPM_P2
2021/06/21 00:00:26;;;;;;;1.48;1.30;;;25.00;56.30;;;;;;4946976;28;20450;-82
2021/06/21 00:02:51;;;;;;;2.35;1.30;;;25.00;56.40;;;;;;4960033;28;20487;-81
2021/06/21 00:05:18;;;;;;;1.58;1.20;;;25.00;56.50;;;;;;4963728;28;20113;-81
2021/06/21 00:07:43;;;;;;;2.67;1.50;;;24.90;56.50;;;;;;4934967;28;20034;-82
2021/06/21 00:10:12;;;;;;;3.03;1.38;;;24.90;56.60;;;;;;4949963;28;20446;-81
2021/06/21 00:12:41;;;;;;;2.75;1.30;;;24.90;56.70;;;;;;4978546;28;20045;-81
2021/06/21 00:15:08;;;;;;;1.50;1.40;;;24.80;56.70;;;;;;4958191;28;20049;-81
2021/06/21 00:17:34;;;;;;;1.38;1.20;;;24.80;56.70;;;;;;4976273;28;20023;-81
2021/06/21 00:20:00;;;;;;;1.75;1.38;;;24.80;56.80;;;;;;4977915;28;20480;-81
2021/06/21 00:22:26;;;;;;;1.70;1.30;;;24.80;56.90;;;;;;4966318;28;20054;-81
2021/06/21 00:24:52;;;;;;;1.67;1.30;;;24.70;56.80;;;;;;4995418;28;20510;-81
2021/06/21 00:27:18;;;;;;;1.90;1.30;;;24.70;56.90;;;;;;4962138;28;20444;-81
2021/06/21 00:29:43;;;;;;;2.70;1.80;;;24.60;56.90;;;;;;4971346;28;20438;-81
2021/06/21 00:32:09;;;;;;;1.70;1.55;;;24.60;56.90;;;;;;4945301;28;20403;-80
2021/06/21 00:34:35;;;;;;;2.13;1.50;;;24.60;56.90;;;;;;4960165;28;20038;-80
2021/06/21 00:37:01;;;;;;;1.50;1.40;;;24.60;57.00;;;;;;4949199;28;20031;-80
2021/06/21 00:39:27;;;;;;;1.95;1.50;;;24.50;57.00;;;;;;4960667;28;20026;-81
2021/06/21 00:41:53;;;;;;;3.25;1.60;;;24.50;57.00;;;;;;4974789;28;20035;-81
2021/06/21 00:44:19;;;;;;;1.80;1.50;;;24.50;57.10;;;;;;4972707;28;20096;-81
2021/06/21 00:46:46;;;;;;;2.50;1.50;;;24.40;57.10;;;;;;4940258;28;20018;-82
2021/06/21 00:49:11;;;;;;;3.85;2.10;;;24.40;57.10;;;;;;4977312;28;20177;-83
2021/06/21 00:51:38;;;;;;;1.48;1.38;;;24.40;57.20;;;;;;4958468;28;20094;-82
2021/06/21 00:54:04;;;;;;;1.90;1.70;;;24.30;57.20;;;;;;4969444;28;20022;-83
2021/06/21 00:56:30;;;;;;;2.70;1.70;;;24.30;57.20;;;;;;4971680;28;20037;-82
2021/06/21 00:59:01;;;;;;;3.00;1.85;;;24.30;57.20;;;;;;4962387;28;20035;-82
2021/06/21 01:01:28;;;;;;;2.08;1.67;;;24.20;57.20;;;;;;4977947;28;20475;-81
2021/06/21 01:03:54;;;;;;;2.85;2.00;;;24.20;57.90;;;;;;4977582;28;20018;-80
2021/06/21 01:06:20;;;;;;;2.92;1.77;;;24.20;57.30;;;;;;4973742;28;20106;-81
2021/06/21 01:08:46;;;;;;;3.05;1.92;;;24.10;57.30;;;;;;4974618;28;20161;-81
2021/06/21 01:11:13;;;;;;;3.22;2.15;;;24.10;57.30;;;;;;4969676;28;20038;-82
2021/06/21 01:13:57;;;;;;;2.80;1.95;;;24.00;57.30;;;;;;4945010;28;20419;-82
2021/06/21 01:16:36;;;;;;;2.95;1.92;;;24.00;57.40;;;;;;4967004;28;20115;-81
2021/06/21 01:19:11;;;;;;;2.30;2.08;;;24.00;57.40;;;;;;4973870;28;20026;-82
2021/06/21 01:22:14;;;;;;;2.53;1.80;;;23.90;57.40;;;;;;4983234;28;20026;-82
2021/06/21 01:25:22;;;;;;;3.13;1.95;;;23.90;57.50;;;;;;4964677;28;20046;-81
2021/06/21 01:28:02;;;;;;;2.63;2.00;;;23.90;57.60;;;;;;4958723;28;20038;-81
2021/06/21 01:30:41;;;;;;;3.08;2.22;;;23.80;57.50;;;;;;4994734;28;20034;-80
2021/06/21 01:33:10;;;;;;;3.00;2.03;;;23.70;57.60;;;;;;4968971;28;20031;-80
2021/06/21 01:35:39;;;;;;;2.13;1.92;;;23.70;57.50;;;;;;4949708;28;20437;-80
2021/06/21 01:38:12;;;;;;;1.98;1.77;;;23.70;57.60;;;;;;4987599;28;20026;-80
2021/06/21 01:40:43;;;;;;;2.50;1.98;;;23.60;57.60;;;;;;4989328;28;20034;-81
2021/06/21 01:43:13;;;;;;;3.38;2.05;;;23.60;57.70;;;;;;4990501;28;20052;-81
2021/06/21 01:45:40;;;;;;;2.65;2.08;;;23.50;57.70;;;;;;4975416;28;20069;-82
2021/06/21 01:48:07;;;;;;;3.30;2.30;;;23.50;57.70;;;;;;4962246;28;20027;-81
2021/06/21 01:50:34;;;;;;;2.30;2.00;;;23.50;57.80;;;;;;4961157;28;20461;-82
2021/06/21 01:53:07;;;;;;;3.08;2.05;;;23.40;57.80;;;;;;4957989;28;20069;-81
2021/06/21 01:55:36;;;;;;;3.25;2.00;;;23.40;57.90;;;;;;4973575;28;20092;-81
2021/06/21 01:58:03;;;;;;;2.30;1.90;;;23.40;57.90;;;;;;4987109;28;20033;-81
2021/06/21 02:00:29;;;;;;;3.50;2.20;;;23.30;57.80;;;;;;4954776;28;20109;-80
2021/06/21 02:02:56;;;;;;;2.67;1.90;;;23.30;57.90;;;;;;4966535;28;20022;-81
2021/06/21 02:05:23;;;;;;;2.95;1.98;;;23.30;58.00;;;;;;4973757;28;20031;-82
2021/06/21 02:07:51;;;;;;;2.53;1.92;;;23.20;58.00;;;;;;4943329;28;20041;-82
2021/06/21 02:10:21;;;;;;;2.47;1.77;;;23.10;58.00;;;;;;4991870;28;20030;-80
2021/06/21 02:12:49;;;;;;;2.65;1.80;;;23.10;58.10;;;;;;4959039;28;20114;-81
2021/06/21 02:15:16;;;;;;;3.20;2.00;;;23.10;58.10;;;;;;4958348;28;20089;-81
2021/06/21 02:17:42;;;;;;;1.70;1.60;;;23.10;58.20;;;;;;4973783;28;20039;-81
2021/06/21 02:20:10;;;;;;;2.33;1.70;;;23.00;58.20;;;;;;4960488;28;20065;-81
2021/06/21 02:22:36;;;;;;;1.98;1.65;;;23.00;58.30;;;;;;4943591;28;20425;-82
2021/06/21 02:25:05;;;;;;;2.85;2.10;;;23.00;58.40;;;;;;4991961;28;20503;-82
2021/06/21 02:27:33;;;;;;;1.83;1.60;;;22.90;58.40;;;;;;4967051;28;20506;-82
2021/06/21 02:30:00;;;;;;;2.72;1.80;;;22.90;58.40;;;;;;4943574;28;20080;-82
2021/06/21 02:32:26;;;;;;;2.28;1.70;;;22.90;58.40;;;;;;4955011;28;20360;-81
2021/06/21 02:34:53;;;;;;;1.60;1.50;;;22.80;58.40;;;;;;4981452;28;20471;-81
2021/06/21 02:37:20;;;;;;;2.05;1.52;;;22.70;58.40;;;;;;4958783;28;20025;-80
2021/06/21 02:39:46;;;;;;;2.47;2.03;;;22.70;58.50;;;;;;4949615;28;20034;-80
2021/06/21 02:42:12;;;;;;;2.13;1.60;;;22.70;58.50;;;;;;4993349;28;20027;-81
2021/06/21 02:44:38;;;;;;;1.55;1.38;;;22.70;58.60;;;;;;4991245;28;20046;-81
2021/06/21 02:47:05;;;;;;;2.38;1.48;;;22.60;58.60;;;;;;4967209;28;20501;-80
2021/06/21 02:49:31;;;;;;;2.60;1.48;;;22.60;58.60;;;;;;4959667;28;20081;-80
2021/06/21 02:52:23;;;;;;;1.55;1.45;;;22.60;58.70;;;;;;4959034;28;20395;-81
2021/06/21 02:55:09;;;;;;;1.40;1.30;;;22.50;58.80;;;;;;4987586;28;20064;-80
2021/06/21 02:57:39;;;;;;;1.40;1.30;;;22.50;58.80;;;;;;4989267;28;20109;-81
2021/06/21 03:00:06;;;;;;;2.35;1.60;;;22.40;58.80;;;;;;4991963;28;20473;-80
2021/06/21 03:02:32;;;;;;;1.52;1.33;;;22.40;58.90;;;;;;4956127;28;20037;-81
2021/06/21 03:04:59;;;;;;;1.63;1.33;;;22.40;59.00;;;;;;4958878;28;20045;-81
2021/06/21 03:07:28;;;;;;;1.65;1.38;;;22.30;59.00;;;;;;4989951;28;20018;-81
2021/06/21 03:09:55;;;;;;;1.42;1.23;;;22.30;59.00;;;;;;4992494;28;20058;-82
2021/06/21 03:12:24;;;;;;;1.20;1.10;;;22.20;59.00;;;;;;4990061;28;20026;-81
2021/06/21 03:14:50;;;;;;;1.40;1.30;;;22.20;59.10;;;;;;4984889;28;20496;-80
2021/06/21 03:17:17;;;;;;;1.35;1.15;;;22.20;59.10;;;;;;4953597;28;20034;-80
2021/06/21 03:19:44;;;;;;;1.60;1.15;;;22.10;59.10;;;;;;4955622;28;20030;-81
2021/06/21 03:22:10;;;;;;;1.40;1.30;;;22.10;59.20;;;;;;4967835;28;20027;-80
2021/06/21 03:24:36;;;;;;;1.05;0.98;;;22.00;59.20;;;;;;4946981;28;20058;-80
2021/06/21 03:27:03;;;;;;;1.30;1.20;;;22.00;59.30;;;;;;4984663;28;20034;-80
2021/06/21 03:29:31;;;;;;;1.02;0.90;;;22.00;59.30;;;;;;4973193;28;20026;-79
2021/06/21 03:32:04;;;;;;;1.30;1.20;;;21.90;59.30;;;;;;4956293;28;20101;-79
2021/06/21 03:34:33;;;;;;;1.42;1.02;;;21.90;59.40;;;;;;4970344;28;20041;-79
2021/06/21 03:36:58;;;;;;;1.13;1.02;;;21.90;59.40;;;;;;4975238;28;20072;-80
2021/06/21 03:39:24;;;;;;;1.20;1.10;;;21.80;59.40;;;;;;4955191;28;20416;-79
2021/06/21 03:41:50;;;;;;;1.00;0.90;;;21.80;59.50;;;;;;4954233;28;20203;-80
2021/06/21 03:44:16;;;;;;;1.13;0.93;;;21.70;59.40;;;;;;4974704;28;20042;-79
2021/06/21 03:46:41;;;;;;;1.15;1.05;;;21.70;59.50;;;;;;4958199;28;20057;-79
2021/06/21 03:49:07;;;;;;;1.05;0.95;;;21.70;59.60;;;;;;4971209;28;20090;-79
2021/06/21 03:51:33;;;;;;;1.10;1.00;;;21.60;59.50;;;;;;4971610;28;20034;-80
2021/06/21 03:53:59;;;;;;;0.82;0.82;;;21.60;59.60;;;;;;4958483;28;20105;-80
2021/06/21 03:56:24;;;;;;;0.90;0.90;;;21.60;59.60;;;;;;4982860;28;20058;-79
2021/06/21 03:58:51;;;;;;;0.90;0.90;;;21.50;59.70;;;;;;4942506;28;20029;-80
2021/06/21 04:01:17;;;;;;;0.60;0.60;;;21.50;59.80;;;;;;4975085;28;20080;-80
2021/06/21 04:03:43;;;;;;;0.90;0.90;;;21.40;59.80;;;;;;4973342;28;20030;-79
2021/06/21 04:06:09;;;;;;;1.67;1.00;;;21.40;59.80;;;;;;4948790;28;20602;-78
2021/06/21 04:08:34;;;;;;;1.08;1.00;;;21.40;59.90;;;;;;4974321;28;20049;-79
2021/06/21 04:11:00;;;;;;;1.15;0.90;;;21.30;59.80;;;;;;4981978;28;20026;-79
2021/06/21 04:13:28;;;;;;;0.80;0.80;;;21.30;59.90;;;;;;4964227;28;20108;-78
2021/06/21 04:15:54;;;;;;;1.27;0.80;;;21.30;60.00;;;;;;4969987;28;20035;-78
2021/06/21 04:18:20;;;;;;;1.10;1.00;;;21.20;60.00;;;;;;4956224;28;20387;-79
2021/06/21 04:20:47;;;;;;;1.17;0.93;;;21.20;60.10;;;;;;4961586;28;20116;-80
2021/06/21 04:23:14;;;;;;;1.00;0.80;;;21.20;60.10;;;;;;4966092;28;20049;-79
2021/06/21 04:25:40;;;;;;;1.33;1.00;;;21.10;60.20;;;;;;4960293;28;20042;-79
2021/06/21 04:28:07;;;;;;;1.02;1.00;;;21.10;60.10;;;;;;4984467;28;20033;-79
2021/06/21 04:30:33;;;;;;;0.80;0.80;;;21.10;60.20;;;;;;4961294;28;20034;-79
2021/06/21 04:32:59;;;;;;;1.13;0.90;;;21.10;60.20;;;;;;4973460;28;20026;-78
2021/06/21 04:35:26;;;;;;;1.15;0.93;;;21.00;60.30;;;;;;4964638;28;20119;-80
2021/06/21 04:37:53;;;;;;;0.98;0.80;;;21.00;60.40;;;;;;4958007;28;20097;-79
2021/06/21 04:40:24;;;;;;;0.85;0.65;;;20.90;60.40;;;;;;4973787;28;20031;-79
2021/06/21 04:42:49;;;;;;;0.80;0.80;;;20.90;60.40;;;;;;4964308;28;20018;-81
2021/06/21 04:45:16;;;;;;;1.00;0.90;;;20.90;60.50;;;;;;4961878;28;20034;-79
2021/06/21 04:47:42;;;;;;;0.93;0.73;;;20.80;60.50;;;;;;4941851;28;20468;-78
2021/06/21 04:50:10;;;;;;;0.80;0.77;;;20.80;60.50;;;;;;4978315;28;20111;-83
2021/06/21 04:52:38;;;;;;;0.70;0.70;;;20.80;60.60;;;;;;4961448;28;20031;-82
2021/06/21 04:55:07;;;;;;;0.70;0.70;;;20.80;60.70;;;;;;4961361;28;20041;-80
2021/06/21 04:57:33;;;;;;;1.10;0.75;;;20.70;60.70;;;;;;4953968;28;20100;-81
2021/06/21 04:59:59;;;;;;;0.80;0.77;;;20.70;60.70;;;;;;4977349;28;20034;-79
2021/06/21 05:02:25;;;;;;;0.82;0.77;;;20.60;60.70;;;;;;4960863;28;20034;-79
2021/06/21 05:04:51;;;;;;;0.60;0.60;;;20.60;60.80;;;;;;4993576;28;20038;-79
2021/06/21 05:07:17;;;;;;;1.23;0.73;;;20.60;60.80;;;;;;4971692;28;20034;-79
2021/06/21 05:09:43;;;;;;;0.73;0.73;;;20.50;60.80;;;;;;4961560;28;20034;-79
2021/06/21 05:12:10;;;;;;;1.20;0.80;;;20.50;60.90;;;;;;4949704;28;20386;-79
2021/06/21 05:14:37;;;;;;;1.05;0.80;;;20.50;61.00;;;;;;4977242;28;20157;-79
2021/06/21 05:17:03;;;;;;;0.50;0.50;;;20.50;61.10;;;;;;4961038;28;20034;-83
2021/06/21 05:19:29;;;;;;;1.10;1.00;;;20.40;61.00;;;;;;4996531;28;20029;-87
2021/06/21 05:21:55;;;;;;;1.65;1.00;;;20.40;61.10;;;;;;4955045;28;20121;-88
2021/06/21 05:24:21;;;;;;;0.80;0.80;;;20.40;61.10;;;;;;4929350;28;20089;-82
2021/06/21 05:26:46;;;;;;;1.00;0.90;;;20.40;61.20;;;;;;4958033;28;20487;-82
2021/06/21 05:29:13;;;;;;;0.80;0.80;;;20.40;61.20;;;;;;4929146;28;20472;-83
2021/06/21 05:31:40;;;;;;;1.02;0.82;;;20.40;61.30;;;;;;4989430;28;20113;-82
2021/06/21 05:34:06;;;;;;;1.52;0.85;;;20.30;61.20;;;;;;4972725;28;20031;-81
2021/06/21 05:36:32;;;;;;;0.90;0.80;;;20.30;61.30;;;;;;4956212;28;20543;-81
2021/06/21 05:38:58;;;;;;;0.73;0.73;;;20.20;61.30;;;;;;4940880;28;20027;-79
2021/06/21 05:41:23;;;;;;;0.80;0.80;;;20.30;61.40;;;;;;4941524;28;20085;-79
2021/06/21 05:43:49;;;;;;;0.50;0.50;;;20.20;61.40;;;;;;4941759;28;20038;-79
2021/06/21 05:46:15;;;;;;;0.73;0.73;;;20.20;61.40;;;;;;4941578;28;20031;-79
2021/06/21 05:48:40;;;;;;;0.57;0.57;;;20.20;61.50;;;;;;4941332;28;20042;-79
2021/06/21 05:51:06;;;;;;;0.60;0.60;;;20.10;61.40;;;;;;4981157;28;20113;-79
2021/06/21 05:53:32;;;;;;;0.63;0.60;;;20.10;61.50;;;;;;4957260;28;20086;-79
2021/06/21 05:55:58;;;;;;;0.60;0.60;;;20.10;61.60;;;;;;4974631;28;20333;-79
2021/06/21 05:58:24;;;;;;;0.85;0.80;;;20.10;61.60;;;;;;4973587;28;20027;-79
2021/06/21 06:00:50;;;;;;;0.70;0.70;;;20.10;61.70;;;;;;4957280;28;20109;-79
2021/06/21 06:03:16;;;;;;;0.65;0.65;;;20.00;61.60;;;;;;4972414;28;20041;-79
2021/06/21 06:05:41;;;;;;;0.63;0.63;;;20.00;61.70;;;;;;4960043;28;20387;-79
2021/06/21 06:08:07;;;;;;;0.82;0.70;;;20.00;61.70;;;;;;4957582;28;20101;-80
2021/06/21 06:10:33;;;;;;;0.60;0.60;;;20.00;61.80;;;;;;4957430;28;20106;-80
2021/06/21 06:12:59;;;;;;;0.70;0.70;;;20.00;61.80;;;;;;4954113;29;20031;-80
2021/06/21 06:15:25;;;;;;;0.63;0.52;;;20.00;61.90;;;;;;4963364;28;20038;-80
2021/06/21 06:17:51;;;;;;;0.55;0.55;;;19.90;61.80;;;;;;4971845;28;20027;-81
2021/06/21 06:20:17;;;;;;;0.55;0.50;;;19.90;61.90;;;;;;4966319;28;20041;-82
2021/06/21 06:22:44;;;;;;;0.60;0.60;;;19.90;62.60;;;;;;4976501;28;20102;-82
2021/06/21 06:25:10;;;;;;;0.55;0.55;;;19.90;62.20;;;;;;4993886;28;20034;-83
2021/06/21 06:27:37;;;;;;;0.50;0.50;;;19.90;62.00;;;;;;4976844;28;20125;-81
2021/06/21 06:30:05;;;;;;;0.70;0.65;;;19.80;62.00;;;;;;4976630;28;20371;-82
2021/06/21 06:32:34;;;;;;;0.63;0.63;;;19.90;62.10;;;;;;4953946;28;20085;-83
2021/06/21 06:35:00;;;;;;;0.60;0.60;;;19.80;62.10;;;;;;4960282;28;20038;-81
2021/06/21 06:37:26;;;;;;;0.82;0.70;;;19.80;62.20;;;;;;4949878;28;20057;-79
2021/06/21 06:39:52;;;;;;;0.68;0.68;;;19.80;62.20;;;;;;4960087;28;20026;-79
2021/06/21 06:42:18;;;;;;;0.95;0.65;;;19.80;62.20;;;;;;4976043;28;20402;-80
2021/06/21 06:44:44;;;;;;;0.55;0.55;;;19.70;62.10;;;;;;4960026;28;20034;-79
2021/06/21 06:47:09;;;;;;;0.93;0.70;;;19.70;62.30;;;;;;4992380;28;20037;-81
2021/06/21 06:49:35;;;;;;;0.60;0.60;;;19.70;62.30;;;;;;4960092;28;20826;-83
2021/06/21 06:52:01;;;;;;;0.60;0.60;;;19.70;62.30;;;;;;4944195;28;20031;-80
2021/06/21 06:54:29;;;;;;;0.93;0.75;;;19.70;62.30;;;;;;4975707;28;20602;-83
2021/06/21 06:57:03;;;;;;;0.50;0.50;;;19.70;62.40;;;;;;4967434;28;20121;-81
2021/06/21 06:59:34;;;;;;;0.77;0.60;;;19.70;62.50;;;;;;4993696;28;20042;-85
2021/06/21 07:02:01;;;;;;;0.52;0.52;;;19.70;62.50;;;;;;4992949;28;20076;-84
2021/06/21 07:04:29;;;;;;;0.40;0.40;;;19.70;62.50;;;;;;4976307;28;20549;-84
2021/06/21 07:06:57;;;;;;;0.60;0.52;;;19.60;62.50;;;;;;4959494;28;20110;-81
2021/06/21 07:09:25;;;;;;;0.60;0.60;;;19.60;62.60;;;;;;4992338;28;20026;-80
2021/06/21 07:11:52;;;;;;;0.52;0.50;;;19.60;62.70;;;;;;4980802;28;20026;-79
2021/06/21 07:14:18;;;;;;;0.40;0.40;;;19.60;62.60;;;;;;4943857;28;20031;-80
2021/06/21 07:16:46;;;;;;;0.40;0.40;;;19.60;63.30;;;;;;4951945;28;20054;-80
2021/06/21 07:19:12;;;;;;;0.60;0.60;;;19.60;62.70;;;;;;4969683;28;20085;-80
2021/06/21 07:21:38;;;;;;;0.90;0.52;;;19.50;62.60;;;;;;4956327;28;20090;-80
2021/06/21 07:24:04;;;;;;;1.05;0.60;;;19.50;62.70;;;;;;4958599;28;20054;-80
2021/06/21 07:26:29;;;;;;;0.60;0.60;;;19.50;62.70;;;;;;4974216;28;20475;-81
2021/06/21 07:28:55;;;;;;;0.63;0.63;;;19.50;62.80;;;;;;4947743;28;20035;-81
2021/06/21 07:31:21;;;;;;;0.50;0.50;;;19.50;62.80;;;;;;4975477;28;20479;-81
2021/06/21 07:33:47;;;;;;;0.75;0.52;;;19.50;62.80;;;;;;4959245;28;20034;-80
2021/06/21 07:36:13;;;;;;;0.40;0.40;;;19.50;62.80;;;;;;4964066;28;20035;-81
2021/06/21 07:38:40;;;;;;;0.50;0.50;;;19.40;62.80;;;;;;4973268;28;20049;-79
2021/06/21 07:41:07;;;;;;;0.40;0.40;;;19.50;62.90;;;;;;4992932;28;20039;-79
2021/06/21 07:43:33;;;;;;;0.50;0.50;;;19.40;62.90;;;;;;4975460;28;20031;-80
2021/06/21 07:45:59;;;;;;;1.10;0.80;;;19.40;62.90;;;;;;4975287;28;20041;-80
2021/06/21 07:48:25;;;;;;;0.47;0.47;;;19.40;63.00;;;;;;4992595;28;20026;-80
2021/06/21 07:50:51;;;;;;;1.17;0.68;;;19.40;63.10;;;;;;4975385;28;20031;-80
2021/06/21 07:53:17;;;;;;;0.60;0.60;;;19.40;63.10;;;;;;4943285;28;20022;-79
2021/06/21 07:55:43;;;;;;;0.50;0.50;;;19.40;63.10;;;;;;4975566;28;20033;-80
2021/06/21 07:58:09;;;;;;;1.05;0.63;;;19.40;63.20;;;;;;4944654;28;20466;-79
2021/06/21 08:00:38;;;;;;;0.60;0.60;;;19.40;63.20;;;;;;4965557;28;20368;-80
2021/06/21 08:03:06;;;;;;;0.50;0.50;;;19.40;63.30;;;;;;4978604;28;20109;-80
2021/06/21 08:05:32;;;;;;;0.50;0.50;;;19.40;63.30;;;;;;4965710;28;20030;-79
2021/06/21 08:07:58;;;;;;;0.50;0.50;;;19.40;63.30;;;;;;4959268;28;20039;-80
2021/06/21 08:10:23;;;;;;;0.80;0.55;;;19.40;63.40;;;;;;4972279;28;20029;-78
2021/06/21 08:12:49;;;;;;;0.50;0.50;;;19.30;63.40;;;;;;4975748;28;20407;-79
2021/06/21 08:15:15;;;;;;;0.50;0.50;;;19.40;63.40;;;;;;4962363;28;20454;-79
2021/06/21 08:17:41;;;;;;;0.55;0.50;;;19.30;63.40;;;;;;4978688;28;20109;-81
2021/06/21 08:20:09;;;;;;;0.50;0.50;;;19.30;63.40;;;;;;4962481;28;20108;-79
2021/06/21 08:22:35;;;;;;;0.55;0.50;;;19.30;63.50;;;;;;4997282;28;20050;-79
2021/06/21 08:25:01;;;;;;;0.52;0.52;;;19.30;63.50;;;;;;4971616;28;20078;-79
2021/06/21 08:27:28;;;;;;;0.50;0.50;;;19.30;63.50;;;;;;4975384;28;20050;-79
2021/06/21 08:29:54;;;;;;;0.68;0.68;;;19.30;63.60;;;;;;4959328;28;20033;-79
2021/06/21 08:32:20;;;;;;;0.60;0.60;;;19.30;63.60;;;;;;4959189;28;20459;-82
2021/06/21 08:34:46;;;;;;;0.57;0.57;;;19.30;63.60;;;;;;4959170;28;20022;-80
2021/06/21 08:37:12;;;;;;;0.55;0.55;;;19.30;63.60;;;;;;4958225;28;20026;-80
2021/06/21 08:39:38;;;;;;;0.40;0.40;;;19.30;63.70;;;;;;4978772;28;20054;-79
2021/06/21 08:42:05;;;;;;;0.50;0.50;;;19.30;63.80;;;;;;4957278;28;20447;-80
2021/06/21 08:44:36;;;;;;;0.95;0.60;;;19.20;63.70;;;;;;4973919;28;20431;-80
2021/06/21 08:47:03;;;;;;;0.43;0.43;;;19.30;63.80;;;;;;4975041;28;20038;-80
2021/06/21 08:49:33;;;;;;;0.70;0.70;;;19.30;63.80;;;;;;4958398;28;20034;-80
2021/06/21 08:52:00;;;;;;;0.63;0.63;;;19.30;63.90;;;;;;4971707;28;20018;-80
2021/06/21 08:54:26;;;;;;;0.60;0.60;;;19.30;63.80;;;;;;4958563;28;20050;-80
2021/06/21 08:56:57;;;;;;;0.60;0.60;;;19.20;63.80;;;;;;4958327;28;20476;-79
2021/06/21 08:59:22;;;;;;;0.70;0.70;;;19.30;63.90;;;;;;4958449;28;20042;-79
2021/06/21 09:01:48;;;;;;;0.65;0.65;;;19.30;63.90;;;;;;4942353;28;20031;-80
2021/06/21 09:04:14;;;;;;;0.60;0.60;;;19.20;63.90;;;;;;4958151;28;20027;-80
2021/06/21 09:06:42;;;;;;;0.60;0.60;;;19.30;63.90;;;;;;4986688;28;20583;-80
2021/06/21 09:09:09;;;;;;;0.80;0.80;;;19.20;63.90;;;;;;4974348;28;20113;-81
2021/06/21 09:11:49;;;;;;;0.52;0.52;;;19.30;64.00;;;;;;4966438;28;20050;-80
2021/06/21 09:14:25;;;;;;;0.40;0.40;;;19.30;64.10;;;;;;4987176;28;20035;-80
2021/06/21 09:17:11;;;;;;;0.60;0.60;;;19.20;64.00;;;;;;4958227;28;20030;-80
2021/06/21 09:19:45;;;;;;;0.88;0.68;;;19.20;64.10;;;;;;4973875;28;20534;-79
2021/06/21 09:22:31;;;;;;;0.60;0.60;;;19.20;64.00;;;;;;4957370;28;20122;-79
2021/06/21 09:24:59;;;;;;;0.60;0.60;;;19.20;64.10;;;;;;4966573;28;20059;-79
2021/06/21 09:27:26;;;;;;;0.60;0.60;;;19.20;64.00;;;;;;4956953;28;20100;-79
2021/06/21 09:29:52;;;;;;;0.57;0.57;;;19.20;64.10;;;;;;4973903;28;20415;-80
2021/06/21 09:32:20;;;;;;;0.70;0.70;;;19.20;64.10;;;;;;4957376;28;20391;-78
2021/06/21 09:34:46;;;;;;;0.80;0.80;;;19.20;64.10;;;;;;4973550;28;20361;-79
2021/06/21 09:37:17;;;;;;;0.55;0.55;;;19.20;64.20;;;;;;4974038;28;20031;-78
2021/06/21 09:39:49;;;;;;;0.82;0.70;;;19.20;64.20;;;;;;4975181;28;20372;-79
2021/06/21 09:42:23;;;;;;;0.60;0.60;;;19.20;64.20;;;;;;4957094;28;20113;-79
2021/06/21 09:45:00;;;;;;;0.50;0.50;;;19.20;64.30;;;;;;4957457;28;20050;-78
2021/06/21 09:47:34;;;;;;;0.60;0.60;;;19.20;64.30;;;;;;4973683;28;20035;-79
2021/06/21 09:50:20;;;;;;;0.57;0.57;;;19.20;64.20;;;;;;4973932;28;20031;-79
2021/06/21 09:52:59;;;;;;;;;;;19.20;64.30;;;;;;4973233;28;20031;-78
2021/06/21 09:55:40;;;;;;;0.55;0.55;;;19.20;63.90;;;;;;4963817;28;19945;-79
2021/06/21 09:58:14;;;;;;;0.60;0.60;;;19.20;64.20;;;;;;4989685;28;20027;-79
2021/06/21 10:00:46;;;;;;;0.60;0.60;;;19.20;64.30;;;;;;4989829;28;20074;-79
2021/06/21 10:03:14;;;;;;;0.55;0.55;;;19.20;64.30;;;;;;4970789;28;20030;-82
2021/06/21 10:05:46;;;;;;;0.40;0.40;;;19.20;64.50;;;;;;4941222;28;20038;-80
2021/06/21 10:08:14;;;;;;;1.23;0.60;;;19.20;64.50;;;;;;4972244;28;20035;-81
2021/06/21 10:10:43;;;;;;;0.50;0.50;;;19.20;64.60;;;;;;4975031;28;20023;-79
2021/06/21 10:13:11;;;;;;;0.57;0.57;;;19.20;64.60;;;;;;4989759;28;20033;-80
2021/06/21 10:15:37;;;;;;;0.80;0.80;;;19.20;64.60;;;;;;4953728;28;20106;-80
2021/06/21 10:18:05;;;;;;;0.60;0.60;;;19.20;64.60;;;;;;4941552;28;20031;-80
2021/06/21 10:20:30;;;;;;;0.60;0.60;;;19.20;64.60;;;;;;4949320;28;20494;-80
2021/06/21 10:22:57;;;;;;;0.60;0.60;;;19.20;64.50;;;;;;4958418;28;20022;-80
2021/06/21 10:25:23;;;;;;;0.55;0.55;;;19.20;64.60;;;;;;4993895;28;20034;-80
2021/06/21 10:27:50;;;;;;;0.60;0.60;;;19.20;64.60;;;;;;4944125;28;20033;-79
2021/06/21 10:30:19;;;;;;;0.70;0.70;;;19.20;64.50;;;;;;4956942;28;20025;-80
2021/06/21 10:32:48;;;;;;;0.52;0.50;;;19.30;64.60;;;;;;4971900;28;20036;-79
2021/06/21 10:35:15;;;;;;;0.70;0.70;;;19.30;64.60;;;;;;4976234;28;20061;-79
2021/06/21 10:37:56;;;;;;;0.50;0.50;;;19.20;64.60;;;;;;4944428;28;20049;-78
2021/06/21 10:40:22;;;;;;;0.55;0.55;;;19.30;64.80;;;;;;4981723;28;20109;-79
2021/06/21 10:42:48;;;;;;;0.70;0.60;;;19.30;64.60;;;;;;4976181;28;20053;-78
2021/06/21 10:45:26;;;;;;;0.50;0.50;;;19.30;64.70;;;;;;4976284;28;20479;-79
2021/06/21 10:48:15;;;;;;;0.70;0.70;;;19.30;64.80;;;;;;4976069;28;20031;-78
2021/06/21 10:50:52;;;;;;;0.45;0.45;;;19.30;64.90;;;;;;4949775;28;20042;-78
2021/06/21 10:53:19;;;;;;;0.75;0.70;;;19.30;64.80;;;;;;4993005;28;20026;-79
2021/06/21 10:55:53;;;;;;;0.60;0.60;;;19.30;64.80;;;;;;4959895;28;20502;-78
2021/06/21 10:58:18;;;;;;;0.50;0.50;;;19.30;64.90;;;;;;4948657;28;20076;-78
2021/06/21 11:00:50;;;;;;;0.50;0.50;;;19.30;64.80;;;;;;4993443;28;20030;-78
2021/06/21 11:03:33;;;;;;;0.60;0.60;;;19.30;64.90;;;;;;4975732;28;20122;-78
2021/06/21 11:06:04;;;;;;;0.50;0.50;;;19.30;65.10;;;;;;4975843;28;20066;-81
2021/06/21 11:08:39;;;;;;;0.60;0.60;;;19.30;65.00;;;;;;4957741;28;20393;-82
2021/06/21 11:11:34;;;;;;;0.85;0.85;;;19.30;65.10;;;;;;4988398;28;20046;-80
2021/06/21 11:14:21;;;;;;;0.60;0.60;;;19.40;65.30;;;;;;4957464;28;20166;-79
2021/06/21 11:16:50;;;;;;;0.40;0.40;;;19.40;65.10;;;;;;4975851;28;20073;-80
2021/06/21 11:19:20;;;;;;;0.50;0.50;;;19.40;65.00;;;;;;4974390;28;20035;-78
2021/06/21 11:21:52;;;;;;;0.55;0.55;;;19.40;65.00;;;;;;4959193;28;20034;-78
2021/06/21 11:24:38;;;;;;;0.60;0.60;;;19.40;65.10;;;;;;4973053;28;20158;-79
2021/06/21 11:27:11;;;;;;;0.57;0.57;;;19.40;65.20;;;;;;4982720;28;20045;-79
2021/06/21 11:29:43;;;;;;;0.52;0.52;;;19.50;65.10;;;;;;4974996;28;20042;-78
2021/06/21 11:32:10;;;;;;;0.50;0.47;;;19.40;65.10;;;;;;4959316;28;20026;-79
2021/06/21 11:34:49;;;;;;;0.65;0.45;;;19.50;65.10;;;;;;4973441;28;20030;-80
2021/06/21 11:37:50;;;;;;;0.50;0.50;;;19.50;65.20;;;;;;4979268;28;20107;-79
2021/06/21 11:40:19;;;;;;;0.40;0.40;;;19.50;65.20;;;;;;4994666;28;20073;-79
2021/06/21 11:42:57;;;;;;;0.88;0.55;;;19.50;65.00;;;;;;4979136;28;20026;-80
2021/06/21 11:45:53;;;;;;;0.60;0.60;;;19.50;65.20;;;;;;4977133;28;20027;-80
2021/06/21 11:48:25;;;;;;;0.50;0.50;;;19.50;65.20;;;;;;4960609;28;20062;-79
2021/06/21 11:50:53;;;;;;;0.50;0.50;;;19.50;65.10;;;;;;4962594;28;20030;-79
2021/06/21 11:53:20;;;;;;;0.60;0.60;;;19.60;65.10;;;;;;4995241;28;20031;-79
2021/06/21 11:55:46;;;;;;;0.60;0.60;;;19.60;65.10;;;;;;4994702;28;20026;-79
2021/06/21 11:58:11;;;;;;;1.00;0.90;;;19.60;65.10;;;;;;4996515;28;20097;-79
2021/06/21 12:00:38;;;;;;;1.10;0.98;;;19.60;65.10;;;;;;4994721;28;20066;-79
2021/06/21 12:03:09;;;;;;;0.43;0.40;;;19.60;65.10;;;;;;4947799;28;20453;-78
2021/06/21 12:05:36;;;;;;;0.57;0.57;;;19.60;65.20;;;;;;4962126;28;20540;-80
2021/06/21 12:08:15;;;;;;;0.55;0.55;;;19.60;65.10;;;;;;4962880;28;20030;-80
2021/06/21 12:10:41;;;;;;;0.57;0.55;;;19.60;65.30;;;;;;4994878;28;20093;-80
2021/06/21 12:13:07;;;;;;;0.60;0.60;;;19.70;65.10;;;;;;4934715;28;20423;-79
2021/06/21 12:15:39;;;;;;;0.52;0.52;;;19.70;65.20;;;;;;4978788;28;20086;-80
2021/06/21 12:18:06;;;;;;;0.65;0.65;;;19.70;65.20;;;;;;4990516;28;20025;-81
2021/06/21 12:20:33;;;;;;;0.55;0.55;;;19.70;65.20;;;;;;5001685;28;20042;-82
2021/06/21 12:23:05;;;;;;;0.60;0.60;;;19.70;65.20;;;;;;4995188;28;20062;-82
2021/06/21 12:25:38;;;;;;;0.60;0.60;;;19.70;65.10;;;;;;4975333;28;20052;-82
2021/06/21 12:28:25;;;;;;;0.82;0.70;;;19.80;65.20;;;;;;4993952;28;20101;-82
2021/06/21 12:30:55;;;;;;;0.57;0.57;;;19.80;65.40;;;;;;4962517;28;20034;-82
2021/06/21 12:33:29;;;;;;;0.80;0.60;;;19.80;65.20;;;;;;4965342;28;20085;-81
2021/06/21 12:36:29;;;;;;;0.50;0.50;;;19.80;65.30;;;;;;4978126;28;20034;-82
2021/06/21 12:38:56;;;;;;;0.40;0.40;;;19.80;65.30;;;;;;4985181;28;20030;-81
2021/06/21 12:41:28;;;;;;;0.70;0.70;;;19.80;65.10;;;;;;4978118;28;20015;-80
2021/06/21 12:44:12;;;;;;;0.77;0.70;;;19.90;65.30;;;;;;4977443;28;20038;-80
2021/06/21 12:46:39;;;;;;;0.65;0.65;;;19.90;65.30;;;;;;4978052;28;20046;-81
2021/06/21 12:49:08;;;;;;;0.65;0.65;;;19.90;65.10;;;;;;4972218;28;20379;-81
2021/06/21 12:51:36;;;;;;;0.60;0.60;;;19.90;65.20;;;;;;4994510;28;20057;-81
2021/06/21 12:54:02;;;;;;;0.55;0.55;;;20.00;65.20;;;;;;4977996;28;20037;-80
2021/06/21 12:56:34;;;;;;;1.33;0.90;;;20.00;65.10;;;;;;4978315;28;20030;-81